createdAt,value
2023-05-14T00:02:22.807Z,7.45
2023-05-14T00:06:25.679Z,7.72
2023-05-14T00:10:28.913Z,6.28
2023-05-14T00:14:31.647Z,5.60
2023-05-14T00:18:35.779Z,6.15
2023-05-14T00:22:39.264Z,6.68
2023-05-14T00:26:42.003Z,8.05
2023-05-14T00:30:45.825Z,6.05
2023-05-14T00:34:50.013Z,6.30
2023-05-14T00:38:52.877Z,5.68
2023-05-14T00:42:56.259Z,6.25
2023-05-14T00:46:59.817Z,5.70
2023-05-14T00:51:04.848Z,6.45
2023-05-14T00:55:08.873Z,5.95
2023-05-14T00:59:12.224Z,6.15
2023-05-14T01:03:16.331Z,6.22
2023-05-14T01:07:31.521Z,7.63
2023-05-14T01:11:41.125Z,6.65
2023-05-14T01:15:46.172Z,6.03
2023-05-14T01:19:50.616Z,7.68
2023-05-14T01:23:57.075Z,6.95
2023-05-14T01:28:07.998Z,7.95
2023-05-14T01:32:13.143Z,6.53
2023-05-14T01:36:18.884Z,5.90
2023-05-14T01:40:24.084Z,6.50
2023-05-14T01:44:30.982Z,9.85
2023-05-14T01:48:34.530Z,6.18
2023-05-14T01:52:37.307Z,6.47
2023-05-14T01:56:42.198Z,6.25
2023-05-14T02:00:44.999Z,6.00
2023-05-14T02:04:50.828Z,7.00
2023-05-14T02:08:54.222Z,7.70
2023-05-14T02:12:58.533Z,6.50
2023-05-14T02:17:01.396Z,8.35
2023-05-14T02:21:04.236Z,6.70
2023-05-14T02:25:08.132Z,6.85
2023-05-14T02:29:12.303Z,7.07
2023-05-14T02:33:15.377Z,7.07
2023-05-14T02:37:18.295Z,7.93
2023-05-14T02:41:21.456Z,8.82
2023-05-14T02:45:25.592Z,6.70
2023-05-14T02:49:28.475Z,6.30
2023-05-14T02:53:31.336Z,6.22
2023-05-14T02:57:34.125Z,6.30
2023-05-14T03:01:38.229Z,6.13
2023-05-14T03:05:41.582Z,6.07
2023-05-14T03:09:44.288Z,6.35
2023-05-14T03:13:47.299Z,7.47
2023-05-14T03:17:51.415Z,5.93
2023-05-14T03:21:54.341Z,6.65
2023-05-14T03:25:57.187Z,6.45
2023-05-14T03:30:00.760Z,7.82
2023-05-14T03:34:05.131Z,6.95
2023-05-14T03:38:07.943Z,7.88
2023-05-14T03:42:10.760Z,6.50
2023-05-14T03:46:13.515Z,7.07
2023-05-14T03:50:18.136Z,6.82
2023-05-14T03:54:21.557Z,7.05
2023-05-14T03:58:24.415Z,6.68
2023-05-14T04:02:27.338Z,6.45
2023-05-14T04:06:33.625Z,6.82
2023-05-14T04:10:37.938Z,6.65
2023-05-14T04:14:40.696Z,6.38
2023-05-14T04:18:46.980Z,6.00
2023-05-14T04:22:52.530Z,7.50
2023-05-14T04:26:55.206Z,6.35
2023-05-14T04:30:58.212Z,6.47
2023-05-14T04:35:01.217Z,6.10
2023-05-14T04:39:08.135Z,6.13
2023-05-14T04:43:13.985Z,6.50
2023-05-14T04:47:19.789Z,6.47
2023-05-14T04:51:24.686Z,7.43
2023-05-14T04:55:34.773Z,6.15
2023-05-14T04:59:37.881Z,6.43
2023-05-14T05:03:41.051Z,6.20
2023-05-14T05:07:44.245Z,6.18
2023-05-14T05:11:49.309Z,6.18
2023-05-14T05:15:52.211Z,7.32
2023-05-14T05:19:55.133Z,7.88
2023-05-14T05:23:58.446Z,6.05
2023-05-14T05:28:02.704Z,6.70
2023-05-14T05:32:06.424Z,5.50
2023-05-14T05:36:09.662Z,5.40
2023-05-14T05:40:14.094Z,5.40
2023-05-14T05:44:18.371Z,5.88
2023-05-14T05:48:21.830Z,5.95
2023-05-14T05:52:26.254Z,5.60
2023-05-14T05:56:29.188Z,5.40
2023-05-14T06:00:33.962Z,5.82
2023-05-14T06:04:37.142Z,5.93
2023-05-14T06:08:40.072Z,5.75
2023-05-14T06:12:42.908Z,5.88
2023-05-14T06:16:47.387Z,6.15
2023-05-14T06:20:50.304Z,6.45
2023-05-14T06:24:53.065Z,6.30
2023-05-14T06:28:55.855Z,6.10
2023-05-14T06:33:01.073Z,5.78
2023-05-14T06:37:04.262Z,4.75
2023-05-14T06:41:07.269Z,4.30
2023-05-14T06:45:10.558Z,4.43
2023-05-14T06:49:14.795Z,4.80
2023-05-14T06:53:17.912Z,4.40
2023-05-14T06:57:21.081Z,4.70
2023-05-14T07:01:24.047Z,4.53
2023-05-14T07:05:28.423Z,4.15
2023-05-14T07:09:31.270Z,5.00
2023-05-14T07:13:34.316Z,5.20
2023-05-14T07:17:37.788Z,5.03
2023-05-14T07:21:42.359Z,4.80
2023-05-14T07:25:47.657Z,4.30
2023-05-14T07:29:52.575Z,5.45
2023-05-14T07:33:55.409Z,4.30
2023-05-14T07:38:00.473Z,4.18
2023-05-14T07:42:05.229Z,4.78
2023-05-14T07:46:10.399Z,3.92
2023-05-14T07:50:13.467Z,4.35
2023-05-14T07:54:18.303Z,4.10
2023-05-14T07:58:21.208Z,4.60
2023-05-14T08:02:24.157Z,4.47
2023-05-14T08:06:27.554Z,4.57
2023-05-14T08:10:31.833Z,4.95
2023-05-14T08:14:34.708Z,4.22
2023-05-14T08:18:37.637Z,4.55
2023-05-14T08:22:40.714Z,4.20
2023-05-14T08:26:45.105Z,4.07
2023-05-14T08:30:48.015Z,3.95
2023-05-14T08:34:50.918Z,3.85
2023-05-14T08:38:53.765Z,6.20
2023-05-14T08:42:58.233Z,2.88
2023-05-14T08:47:01.934Z,2.60
2023-05-14T08:51:05.803Z,2.45
2023-05-14T08:55:09.726Z,2.53
2023-05-14T08:59:14.208Z,2.65
2023-05-14T09:03:18.907Z,2.90
2023-05-14T09:07:22.043Z,2.60
2023-05-14T09:11:25.193Z,2.58
2023-05-14T09:15:30.801Z,3.22
2023-05-14T09:19:33.972Z,2.30
2023-05-14T09:23:36.872Z,1.83
2023-05-14T09:27:40.111Z,2.20
2023-05-14T09:31:44.513Z,1.98
2023-05-14T09:35:49.630Z,1.65
2023-05-14T09:39:52.624Z,1.73
2023-05-14T09:44:17.447Z,1.95
2023-05-14T09:48:22.967Z,1.75
2023-05-14T09:52:26.312Z,2.22
2023-05-14T09:56:34.957Z,3.50
2023-05-14T10:00:39.837Z,2.42
2023-05-14T10:04:54.888Z,2.20
2023-05-14T10:09:06.126Z,2.50
2023-05-14T10:13:17.646Z,2.15
2023-05-14T10:17:26.826Z,1.90
2023-05-14T10:21:33.068Z,2.10
2023-05-14T10:25:36.940Z,2.03
2023-05-14T10:29:39.965Z,2.00
2023-05-14T10:33:49.291Z,2.42
2023-05-14T10:38:01.414Z,2.10
2023-05-14T10:42:09.511Z,2.75
2023-05-14T10:46:18.162Z,1.98
2023-05-14T10:50:23.632Z,2.05
2023-05-14T10:54:31.906Z,2.25
2023-05-14T10:58:59.746Z,2.05
2023-05-14T11:03:08.173Z,2.15
2023-05-14T11:07:12.518Z,1.90
2023-05-14T11:11:36.226Z,2.08
2023-05-14T11:15:47.105Z,1.90
2023-05-14T11:20:00.888Z,1.77
2023-05-14T11:24:05.630Z,1.67
2023-05-14T11:28:33.497Z,1.65
2023-05-14T11:32:36.519Z,3.00
2023-05-14T11:36:39.575Z,3.17
2023-05-14T11:40:42.385Z,3.20
2023-05-14T11:44:48.950Z,3.25
2023-05-14T11:48:51.953Z,1.98
2023-05-14T11:52:58.299Z,1.80
2023-05-14T11:57:03.103Z,5.35
2023-05-14T12:01:08.350Z,3.25
2023-05-14T12:05:14.305Z,1.80
2023-05-14T12:09:18.511Z,2.15
2023-05-14T12:13:21.428Z,3.00
2023-05-14T12:17:27.191Z,2.15
2023-05-14T12:21:31.434Z,1.85
2023-05-14T12:25:34.240Z,2.00
2023-05-14T12:29:39.065Z,2.33
2023-05-14T12:33:43.155Z,2.47
2023-05-14T12:37:47.482Z,2.22
2023-05-14T12:41:50.300Z,2.88
2023-05-14T12:45:54.436Z,2.72
2023-05-14T12:50:01.662Z,2.22
2023-05-14T12:54:05.694Z,2.20
2023-05-14T12:58:09.234Z,2.15
2023-05-14T13:02:12.397Z,2.30
2023-05-14T13:06:16.728Z,2.45
2023-05-14T13:10:19.652Z,2.40
2023-05-14T13:14:22.487Z,2.60
2023-05-14T13:18:26.329Z,2.75
2023-05-14T13:22:31.094Z,2.10
2023-05-14T13:26:33.870Z,2.95
2023-05-14T13:30:37.840Z,2.03
2023-05-14T13:34:40.745Z,2.15
2023-05-14T13:38:46.234Z,2.88
2023-05-14T13:42:49.147Z,2.08
2023-05-14T13:46:52.493Z,2.85
2023-05-14T13:50:55.803Z,2.50
2023-05-14T13:55:00.044Z,2.33
2023-05-14T13:59:03.476Z,6.47
2023-05-14T14:03:07.502Z,3.67
2023-05-14T14:07:11.153Z,3.78
2023-05-14T14:11:17.631Z,2.80
2023-05-14T14:15:20.709Z,3.15
2023-05-14T14:19:24.686Z,2.97
2023-05-14T14:23:27.526Z,6.07
2023-05-14T14:27:34.953Z,3.58
2023-05-14T14:31:38.061Z,3.53
2023-05-14T14:35:40.965Z,3.17
2023-05-14T14:39:45.033Z,5.07
2023-05-14T14:43:49.865Z,3.92
2023-05-14T14:47:52.796Z,3.17
2023-05-14T14:51:55.970Z,3.20
2023-05-14T14:56:01.151Z,3.35
2023-05-14T15:00:07.992Z,3.17
2023-05-14T15:04:11.000Z,3.53
2023-05-14T15:08:14.195Z,4.25
2023-05-14T15:12:17.242Z,3.13
2023-05-14T15:16:21.672Z,2.67
2023-05-14T15:20:24.819Z,3.33
2023-05-14T15:24:27.696Z,3.20
2023-05-14T15:28:30.711Z,3.97
2023-05-14T15:32:35.079Z,3.80
2023-05-14T15:36:38.152Z,3.60
2023-05-14T15:40:41.692Z,3.05
2023-05-14T15:44:44.526Z,4.07
2023-05-14T15:48:48.998Z,3.33
2023-05-14T15:52:51.938Z,2.90
2023-05-14T15:56:56.584Z,3.05
2023-05-14T16:00:59.549Z,3.00
2023-05-14T16:05:04.224Z,2.70
2023-05-14T16:09:07.736Z,3.72
2023-05-14T16:13:12.308Z,2.92
2023-05-14T16:17:15.514Z,2.92
2023-05-14T16:21:19.909Z,2.50
2023-05-14T16:25:23.277Z,4.22
2023-05-14T16:29:26.664Z,5.55
2023-05-14T16:33:29.750Z,3.65
2023-05-14T16:37:34.358Z,4.90
2023-05-14T16:41:37.386Z,3.83
2023-05-14T16:45:44.922Z,4.30
2023-05-14T16:49:47.986Z,4.45
2023-05-14T16:53:52.470Z,5.30
2023-05-14T16:57:57.349Z,5.10
2023-05-14T17:02:00.631Z,3.67
2023-05-14T17:06:04.774Z,5.75
2023-05-14T17:10:11.026Z,3.20
2023-05-14T17:14:14.841Z,3.92
2023-05-14T17:18:19.363Z,3.88
2023-05-14T17:22:22.848Z,4.57
2023-05-14T17:26:27.740Z,3.85
2023-05-14T17:30:31.371Z,6.10
2023-05-14T17:34:35.111Z,3.65
2023-05-14T17:38:39.154Z,4.05
2023-05-14T17:42:45.737Z,4.28
2023-05-14T17:46:50.385Z,3.72
2023-05-14T17:50:55.010Z,3.42
2023-05-14T17:54:58.503Z,3.67
2023-05-14T17:59:04.637Z,4.15
2023-05-14T18:03:09.108Z,4.70
2023-05-14T18:07:19.074Z,5.75
2023-05-14T18:11:22.282Z,6.65
2023-05-14T18:15:31.845Z,4.38
2023-05-14T18:19:35.081Z,4.70
2023-05-14T18:23:38.077Z,4.50
2023-05-14T18:27:44.499Z,4.85
2023-05-14T18:31:49.060Z,5.80
2023-05-14T18:35:53.724Z,5.43
2023-05-14T18:39:56.724Z,5.20
2023-05-14T18:44:02.474Z,5.65
2023-05-14T18:48:07.760Z,5.13
2023-05-14T18:52:10.968Z,5.35
2023-05-14T18:56:16.044Z,5.80
2023-05-14T19:00:20.804Z,5.35
2023-05-14T19:04:25.332Z,4.78
2023-05-14T19:08:28.484Z,5.32
2023-05-14T19:12:31.757Z,6.45
2023-05-14T19:16:35.432Z,5.07
2023-05-14T19:20:39.948Z,5.00
2023-05-14T19:24:43.060Z,5.30
2023-05-14T19:28:46.233Z,4.80
2023-05-14T19:32:50.478Z,4.85
2023-05-14T19:36:54.773Z,5.43
2023-05-14T19:40:57.910Z,7.53
2023-05-14T19:45:01.096Z,6.45
2023-05-14T19:49:04.097Z,7.20
2023-05-14T19:53:09.751Z,8.05
2023-05-14T19:57:12.923Z,7.10
2023-05-14T20:01:16.178Z,18.40
2023-05-14T20:05:19.711Z,22.13
2023-05-14T20:09:24.298Z,10.05
2023-05-14T20:13:27.340Z,7.70
2023-05-14T20:17:31.009Z,8.43
2023-05-14T20:21:34.184Z,8.90
2023-05-14T20:25:38.419Z,8.23
2023-05-14T20:29:41.543Z,7.30
2023-05-14T20:33:44.622Z,8.35
2023-05-14T20:37:49.295Z,6.40
2023-05-14T20:41:54.182Z,8.43
2023-05-14T20:45:58.378Z,7.38
2023-05-14T20:50:01.699Z,7.00
2023-05-14T20:54:04.742Z,7.45
2023-05-14T20:58:09.003Z,8.05
2023-05-14T21:02:13.379Z,8.13
2023-05-14T21:06:16.383Z,7.28
2023-05-14T21:10:19.331Z,7.65
2023-05-14T21:14:24.115Z,7.82
2023-05-14T21:18:30.603Z,8.35
2023-05-14T21:22:33.534Z,7.63
2023-05-14T21:26:40.248Z,8.05
2023-05-14T21:30:44.364Z,7.60
2023-05-14T21:34:47.261Z,7.63
2023-05-14T21:38:50.144Z,7.65
2023-05-14T21:42:53.720Z,7.65
2023-05-14T21:47:03.815Z,8.15
2023-05-14T21:51:08.159Z,8.13
2023-05-14T21:55:16.449Z,8.57
2023-05-14T21:59:28.378Z,7.93
2023-05-14T22:03:33.202Z,8.73
2023-05-14T22:07:36.558Z,8.82
2023-05-14T22:11:40.082Z,7.53
2023-05-14T22:15:48.390Z,7.75
2023-05-14T22:19:57.256Z,8.18
2023-05-14T22:24:00.373Z,8.35
2023-05-14T22:28:04.991Z,8.75
2023-05-14T22:32:10.349Z,8.45
2023-05-14T22:36:14.822Z,7.72
2023-05-14T22:40:17.940Z,8.20
2023-05-14T22:44:21.156Z,9.07
2023-05-14T22:48:24.386Z,8.27
2023-05-14T22:52:29.256Z,8.35
2023-05-14T22:56:32.594Z,9.25
2023-05-14T23:00:36.008Z,8.45
2023-05-14T23:04:39.509Z,8.63
2023-05-14T23:08:44.166Z,8.77
2023-05-14T23:12:47.284Z,8.77
2023-05-14T23:16:51.515Z,8.60
2023-05-14T23:20:54.870Z,9.38
2023-05-14T23:24:59.136Z,8.00
2023-05-14T23:29:02.123Z,9.65
2023-05-14T23:33:05.258Z,8.32
2023-05-14T23:37:08.841Z,7.90
2023-05-14T23:41:13.024Z,8.70
2023-05-14T23:45:16.504Z,8.05
2023-05-14T23:49:19.964Z,7.70
2023-05-14T23:53:23.207Z,9.82
2023-05-14T23:57:27.690Z,8.95
